Time;durP1;ratioP1;P1;durP2;ratioP2;P2;SDS_P1;SDS_P2;PMS_P1;PMS_P2;Temp;Humidity;BMP_temperature;BMP_pressure;BME280_temperature;BME280_humidity;BME280_pressure;Samples;Min_cycle;Max_cycle;Signal;HPM_P1;HPM_P2
2024/01/24 00:01:45;;;;;;;16.00;2.60;;;13.00;99.90;;;12.47;100.00;102524.06;4218303;28;20016;-73
2024/01/24 00:03:46;;;;;;;15.38;2.58;;;13.00;99.90;;;12.47;100.00;102517.94;4218148;28;20096;-73
2024/01/24 00:05:47;;;;;;;10.77;2.58;;;13.00;99.90;;;12.47;100.00;102515.28;4218503;28;20028;-73
2024/01/24 00:07:48;;;;;;;9.63;2.10;;;13.00;99.90;;;12.45;100.00;102518.06;4218117;28;20102;-73
2024/01/24 00:09:48;;;;;;;14.52;3.03;;;13.00;99.90;;;12.48;100.00;102511.69;4218139;28;20032;-73
2024/01/24 00:11:49;;;;;;;11.65;2.78;;;13.00;99.90;;;12.46;100.00;102519.72;4200134;28;20426;-73
2024/01/24 00:13:50;;;;;;;18.40;3.78;;;13.00;99.90;;;12.45;100.00;102514.59;4218025;28;20024;-73
2024/01/24 00:15:51;;;;;;;13.57;3.33;;;12.90;99.90;;;12.46;100.00;102518.88;4218034;28;20478;-73
2024/01/24 00:17:52;;;;;;;13.52;2.53;;;12.90;99.90;;;12.45;100.00;102519.88;4200228;28;20025;-73
2024/01/24 00:19:53;;;;;;;13.18;2.90;;;13.00;99.90;;;12.45;100.00;102531.31;4200239;28;20024;-73
2024/01/24 00:21:54;;;;;;;14.50;2.92;;;13.00;99.90;;;12.45;100.00;102530.47;4200303;28;20024;-72
2024/01/24 00:23:55;;;;;;;11.45;2.33;;;13.00;99.90;;;12.46;100.00;102527.66;4221174;28;20508;-73
2024/01/24 00:25:56;;;;;;;8.50;2.05;;;13.00;99.90;;;12.43;100.00;102521.78;4221410;28;20028;-73
2024/01/24 00:27:57;;;;;;;16.65;3.10;;;13.00;99.90;;;12.53;100.00;102530.66;4203122;28;20419;-73
2024/01/24 00:29:57;;;;;;;12.48;2.90;;;13.00;99.90;;;12.47;100.00;102528.53;4221117;28;20024;-73
2024/01/24 00:31:58;;;;;;;11.95;2.00;;;13.00;99.90;;;12.47;100.00;102528.53;4186616;28;20033;-73
2024/01/24 00:33:59;;;;;;;12.52;2.35;;;13.00;99.90;;;12.45;100.00;102531.31;4220924;28;20379;-73
2024/01/24 00:36:00;;;;;;;11.77;3.10;;;13.00;99.90;;;12.44;100.00;102540.19;4203028;28;20024;-73
2024/01/24 00:38:01;;;;;;;14.48;3.28;;;12.90;99.90;;;12.44;100.00;102542.00;4220791;28;20028;-73
2024/01/24 00:40:03;;;;;;;15.43;2.72;;;13.00;99.90;;;12.44;100.00;102545.50;4221037;28;20527;-73
2024/01/24 00:42:04;;;;;;;13.90;2.97;;;13.00;99.90;;;12.46;100.00;102532.97;4221167;28;20483;-73
2024/01/24 00:44:05;;;;;;;16.40;2.95;;;13.00;99.90;;;12.41;100.00;102531.66;4220957;28;20034;-73
2024/01/24 00:46:06;;;;;;;14.25;3.47;;;12.90;99.90;;;12.42;100.00;102528.91;4200645;28;20040;-73
2024/01/24 00:48:07;;;;;;;19.08;3.85;;;12.90;99.90;;;12.43;100.00;102542.97;4202863;28;20048;-73
2024/01/24 00:50:09;;;;;;;19.65;4.00;;;12.90;99.90;;;12.49;100.00;102545.09;4212760;28;20047;-73
2024/01/24 00:52:09;;;;;;;21.67;4.75;;;12.90;99.90;;;12.44;100.00;102536.72;4220540;28;20035;-73
2024/01/24 00:54:10;;;;;;;21.05;4.47;;;12.90;99.90;;;12.43;100.00;102535.88;4202602;28;20487;-73
2024/01/24 00:56:11;;;;;;;30.60;4.75;;;12.90;99.90;;;12.43;100.00;102545.59;4202848;28;20048;-73
2024/01/24 00:58:12;;;;;;;21.98;5.55;;;13.00;99.90;;;12.41;100.00;102545.75;4220760;28;20024;-73
2024/01/24 01:00:14;;;;;;;31.30;4.05;;;12.90;99.90;;;12.41;100.00;102544.91;4202829;28;20032;-73
2024/01/24 01:02:15;;;;;;;21.20;4.72;;;12.90;99.90;;;12.39;100.00;102549.47;4202587;28;20040;-73
2024/01/24 01:04:16;;;;;;;28.05;4.20;;;12.90;99.90;;;12.38;100.00;102547.78;4220688;28;20024;-73
2024/01/24 01:06:17;;;;;;;19.65;4.45;;;12.90;99.90;;;12.40;100.00;102544.06;4202649;28;20044;-73
2024/01/24 01:08:17;;;;;;;29.73;4.95;;;12.90;99.90;;;12.38;100.00;102553.09;4220661;28;20032;-73
2024/01/24 01:10:18;;;;;;;31.80;4.82;;;12.90;99.90;;;12.37;100.00;102541.66;4220430;28;20036;-73
2024/01/24 01:12:19;;;;;;;26.80;4.18;;;12.90;99.90;;;12.35;100.00;102542.75;4220524;28;20031;-73
2024/01/24 01:14:20;;;;;;;30.77;6.07;;;12.80;99.90;;;12.39;100.00;102549.47;4202632;28;20449;-73
2024/01/24 01:16:21;;;;;;;36.13;5.43;;;12.80;99.90;;;12.35;100.00;102546.25;4220371;28;20544;-73
2024/01/24 01:18:22;;;;;;;28.20;5.35;;;12.80;99.90;;;12.36;100.00;102536.50;4185231;28;20029;-73
2024/01/24 01:20:23;;;;;;;36.45;4.70;;;12.80;99.90;;;12.35;100.00;102533.00;4215444;28;20027;-73
2024/01/24 01:22:23;;;;;;;29.55;5.40;;;12.80;99.90;;;12.34;100.00;102533.13;4210971;28;20032;-73
2024/01/24 01:24:24;;;;;;;35.30;6.47;;;12.80;99.90;;;12.34;100.00;102541.91;4200015;28;20056;-73
2024/01/24 01:26:25;;;;;;;33.95;5.72;;;12.80;99.90;;;12.35;100.00;102543.59;4202016;28;20496;-73
2024/01/24 01:28:26;;;;;;;28.60;6.30;;;12.80;99.90;;;12.36;100.00;102534.69;4220304;28;20488;-73
2024/01/24 01:30:27;;;;;;;31.13;6.18;;;12.80;99.90;;;12.38;100.00;102538.06;4220193;28;20491;-73
2024/01/24 01:32:28;;;;;;;35.92;6.72;;;12.80;99.90;;;12.37;100.00;102538.16;4224305;28;20040;-73
2024/01/24 01:34:28;;;;;;;36.13;6.63;;;12.80;99.90;;;12.41;100.00;102540.44;4219719;28;20028;-73
2024/01/24 01:36:29;;;;;;;34.65;6.05;;;12.80;99.90;;;12.40;100.00;102546.69;4219827;28;20031;-73
2024/01/24 01:38:30;;;;;;;44.60;7.43;;;12.80;99.90;;;12.43;100.00;102538.50;4220227;28;20490;-73
2024/01/24 01:40:31;;;;;;;45.50;7.72;;;12.90;99.90;;;12.41;100.00;102542.25;4220249;28;20020;-73
2024/01/24 01:42:32;;;;;;;37.13;6.20;;;12.90;99.90;;;12.40;100.00;102543.19;4219412;28;20090;-73
2024/01/24 01:44:43;;;;;;;40.08;7.45;;;12.90;99.90;;;12.47;100.00;102541.75;4219884;28;20027;-73
2024/01/24 01:46:47;;;;;;;40.45;6.18;;;12.90;99.90;;;12.42;100.00;102550.09;4187762;28;20060;-73
2024/01/24 01:48:49;;;;;;;37.95;6.22;;;12.90;99.90;;;12.46;100.00;102545.34;4168834;28;20030;-73
2024/01/24 01:50:50;;;;;;;37.80;7.10;;;12.90;99.90;;;12.43;100.00;102548.25;4168752;28;20033;-73
2024/01/24 01:52:52;;;;;;;40.65;5.72;;;13.00;99.90;;;12.44;100.00;102549.94;4172247;28;20029;-73
2024/01/24 01:54:53;;;;;;;47.17;8.88;;;13.00;99.90;;;12.44;100.00;102547.28;4168774;28;20053;-73
2024/01/24 01:56:54;;;;;;;37.65;6.00;;;12.90;99.90;;;12.48;100.00;102554.03;4162682;28;20033;-73
2024/01/24 01:58:56;;;;;;;34.17;6.50;;;13.00;99.90;;;12.49;100.00;102553.03;4168646;28;20497;-73
2024/01/24 02:00:57;;;;;;;48.55;8.00;;;13.00;99.90;;;12.46;100.00;102553.28;4177333;28;20494;-73
2024/01/24 02:02:57;;;;;;;37.25;6.18;;;13.00;99.90;;;12.43;100.00;102550.91;4184269;28;20056;-73
2024/01/24 02:04:58;;;;;;;36.17;6.57;;;12.90;99.90;;;12.44;100.00;102561.38;4182725;28;20029;-73
2024/01/24 02:07:00;;;;;;;45.50;6.70;;;12.90;99.90;;;12.45;100.00;102560.41;4169644;28;20033;-72
2024/01/24 02:09:02;;;;;;;34.83;7.15;;;12.90;99.90;;;12.44;100.00;102548.13;4169901;28;20036;-73
2024/01/24 02:11:04;;;;;;;47.20;7.25;;;13.00;99.90;;;12.46;100.00;102556.78;4169741;28;20055;-73
2024/01/24 02:13:05;;;;;;;39.33;7.57;;;12.90;99.90;;;12.44;100.00;102544.66;4199418;28;20030;-73
2024/01/24 02:15:09;;;;;;;31.25;6.75;;;13.00;99.90;;;12.43;100.00;102542.97;4175633;28;20021;-73
2024/01/24 02:17:10;;;;;;;45.67;7.70;;;12.90;99.90;;;12.43;100.00;102545.59;4169241;28;20060;-73
2024/01/24 02:19:11;;;;;;;32.35;6.00;;;12.90;99.90;;;12.49;100.00;102545.09;4169701;28;20026;-73
2024/01/24 02:21:12;;;;;;;36.13;7.55;;;12.90;99.90;;;12.48;100.00;102556.69;4169426;28;20029;-73
2024/01/24 02:23:15;;;;;;;44.10;8.27;;;12.90;99.90;;;12.48;100.00;102552.22;4185744;28;20549;-73
2024/01/24 02:25:16;;;;;;;31.30;5.90;;;13.00;99.90;;;12.48;100.00;102556.69;4171907;28;20043;-73
2024/01/24 02:27:16;;;;;;;43.20;7.45;;;13.00;99.90;;;12.51;100.00;102553.78;4179364;28;20025;-73
2024/01/24 02:29:17;;;;;;;36.63;7.18;;;13.00;99.90;;;12.49;100.00;102555.69;4168291;28;20029;-73
2024/01/24 02:31:19;;;;;;;30.83;5.15;;;13.00;99.90;;;12.48;100.00;102559.31;4181284;28;20024;-73
2024/01/24 02:33:20;;;;;;;31.35;5.28;;;13.00;99.90;;;12.47;100.00;102555.00;4187393;28;20025;-73
2024/01/24 02:35:24;;;;;;;44.10;6.85;;;12.90;99.90;;;12.41;100.00;102544.91;4175402;28;20533;-73
2024/01/24 02:37:25;;;;;;;33.38;5.57;;;12.90;99.90;;;12.40;100.00;102554.63;4184617;28;20033;-73
2024/01/24 02:39:26;;;;;;;30.02;6.03;;;12.90;99.90;;;12.39;100.00;102550.34;4185011;28;20017;-73
2024/01/24 02:41:27;;;;;;;37.05;7.75;;;12.90;99.90;;;12.41;100.00;102552.84;4167873;28;20033;-73
2024/01/24 02:43:28;;;;;;;36.13;5.28;;;12.90;99.90;;;12.39;100.00;102568.84;4174053;28;20014;-73
2024/01/24 02:45:28;;;;;;;33.63;6.15;;;12.90;99.90;;;12.41;100.00;102558.13;4182722;28;20104;-73
2024/01/24 02:47:29;;;;;;;41.38;7.10;;;12.90;99.90;;;12.37;100.00;102546.09;4207826;28;20380;-73
2024/01/24 02:49:30;;;;;;;35.15;6.55;;;12.90;99.90;;;12.37;100.00;102539.00;4201044;28;20066;-73
2024/01/24 02:51:31;;;;;;;42.90;6.97;;;12.90;99.90;;;12.40;100.00;102551.16;4218768;28;20432;-72
2024/01/24 02:53:32;;;;;;;42.60;6.10;;;12.90;99.90;;;12.37;100.00;102557.53;4218886;28;20032;-73
2024/01/24 02:55:33;;;;;;;41.10;7.82;;;12.90;99.90;;;12.37;100.00;102554.88;4200845;28;20515;-73
2024/01/24 02:57:34;;;;;;;29.75;5.65;;;12.90;99.90;;;12.40;100.00;102554.63;4218704;28;20111;-73
2024/01/24 02:59:35;;;;;;;37.58;6.75;;;12.90;99.90;;;12.39;100.00;102558.28;4218923;28;20024;-72
2024/01/24 03:01:36;;;;;;;36.40;6.68;;;12.90;99.90;;;12.40;100.00;102557.28;4219038;28;20525;-73
2024/01/24 03:03:40;;;;;;;37.60;8.05;;;12.90;99.90;;;12.43;100.00;102566.78;4200784;28;20025;-72
2024/01/24 03:05:41;;;;;;;48.70;8.18;;;12.90;99.90;;;12.42;100.00;102563.31;4218617;28;20561;-72
2024/01/24 03:07:42;;;;;;;31.92;6.63;;;12.90;99.90;;;12.44;100.00;102563.19;4218578;28;20028;-72
2024/01/24 03:09:42;;;;;;;40.88;7.18;;;12.90;99.90;;;12.45;100.00;102565.72;4218713;28;20024;-73
2024/01/24 03:11:43;;;;;;;35.42;6.82;;;12.90;99.90;;;12.46;100.00;102572.66;4218664;28;20505;-73
2024/01/24 03:13:44;;;;;;;39.60;7.20;;;12.90;99.90;;;12.46;100.00;102563.88;4200390;28;20032;-73
2024/01/24 03:15:45;;;;;;;39.47;6.25;;;12.90;99.90;;;12.47;100.00;102569.06;4218614;28;20020;-73
2024/01/24 03:17:46;;;;;;;39.83;7.40;;;12.90;99.90;;;12.51;100.00;102557.28;4218657;28;20098;-72
2024/01/24 03:19:47;;;;;;;32.97;5.80;;;13.00;99.90;;;12.52;100.00;102571.34;4200887;28;20032;-73
2024/01/24 03:21:48;;;;;;;42.38;7.82;;;13.00;99.90;;;12.54;100.00;102574.72;4218285;28;20483;-72
2024/01/24 03:23:49;;;;;;;29.83;5.90;;;13.00;99.90;;;12.55;100.00;102579.03;4200545;28;20107;-73
2024/01/24 03:25:50;;;;;;;32.78;5.55;;;13.00;99.90;;;12.50;100.00;102571.47;4218781;28;20028;-73
2024/01/24 03:27:51;;;;;;;35.38;6.03;;;13.00;99.90;;;12.56;100.00;102572.78;4200722;28;20074;-73
2024/01/24 03:29:52;;;;;;;32.33;6.13;;;13.00;99.90;;;12.55;100.00;102579.03;4218607;28;20028;-73
2024/01/24 03:31:53;;;;;;;37.90;5.65;;;13.00;99.90;;;12.55;100.00;102581.66;4218616;28;20024;-73
2024/01/24 03:33:54;;;;;;;37.67;7.20;;;13.00;99.90;;;12.54;100.00;102575.56;4219605;28;20065;-73
2024/01/24 03:35:54;;;;;;;30.73;5.70;;;13.00;99.90;;;12.55;100.00;102582.50;4218451;28;20024;-73
2024/01/24 03:37:55;;;;;;;31.15;6.75;;;13.10;99.90;;;12.62;100.00;102591.66;4218143;28;20032;-73
2024/01/24 03:39:56;;;;;;;30.98;6.43;;;13.00;99.90;;;12.61;100.00;102567.94;4229514;28;20525;-73
2024/01/24 03:41:57;;;;;;;31.20;5.90;;;13.10;99.90;;;12.60;100.00;102571.56;4209581;28;20024;-73
2024/01/24 03:43:58;;;;;;;33.03;5.57;;;13.10;99.90;;;12.65;100.00;102580.81;4200392;28;20025;-72
2024/01/24 03:45:59;;;;;;;30.50;5.38;;;13.10;99.90;;;12.61;100.00;102589.13;4227063;28;20388;-73
2024/01/24 03:48:00;;;;;;;33.97;6.97;;;13.10;99.90;;;12.59;100.00;102586.63;4218402;28;20031;-73
2024/01/24 03:50:01;;;;;;;49.95;8.77;;;13.10;99.90;;;12.58;100.00;102584.06;4218375;28;20032;-73
2024/01/24 03:52:02;;;;;;;31.25;5.57;;;13.00;99.90;;;12.55;100.00;102584.31;4218266;28;20024;-73
2024/01/24 03:54:03;;;;;;;35.15;6.55;;;13.00;99.90;;;12.60;100.00;102588.28;4218228;28;20115;-73
2024/01/24 03:56:06;;;;;;;34.08;5.82;;;13.10;99.90;;;12.53;100.00;102567.72;4214845;28;20399;-73
2024/01/24 03:58:06;;;;;;;34.95;5.88;;;13.10;99.90;;;12.58;100.00;102584.06;4202937;28;20031;-72
2024/01/24 04:00:10;;;;;;;36.05;5.78;;;13.00;99.90;;;12.57;100.00;102572.63;4221688;28;20016;-73
2024/01/24 04:02:11;;;;;;;37.53;5.67;;;13.00;99.90;;;12.57;100.00;102571.81;4221632;28;20028;-73
2024/01/24 04:04:11;;;;;;;34.33;6.03;;;13.00;99.90;;;12.60;100.00;102592.75;4205264;28;20035;-73
2024/01/24 04:06:12;;;;;;;22.88;5.18;;;13.00;99.90;;;12.56;100.00;102580.72;4221610;28;20016;-73
2024/01/24 04:08:13;;;;;;;25.85;4.65;;;13.00;99.90;;;12.58;100.00;102576.13;4221750;28;20028;-73
2024/01/24 04:10:15;;;;;;;24.23;3.78;;;13.00;99.90;;;12.56;100.00;102570.13;4221663;28;20471;-73
2024/01/24 04:12:16;;;;;;;26.95;4.00;;;13.00;99.90;;;12.55;100.00;102582.50;4221540;28;20055;-72
2024/01/24 04:14:17;;;;;;;25.00;3.85;;;13.00;99.90;;;12.54;100.00;102585.31;4221323;28;20051;-73
2024/01/24 04:16:18;;;;;;;22.20;4.25;;;13.00;99.90;;;12.58;100.00;102586.72;4221376;28;20027;-73
2024/01/24 04:18:19;;;;;;;26.23;4.50;;;13.00;99.90;;;12.56;100.00;102591.31;4203430;28;20045;-73
2024/01/24 04:20:20;;;;;;;19.73;3.65;;;13.00;99.90;;;12.59;100.00;102596.34;4221338;28;20043;-73
2024/01/24 04:22:20;;;;;;;19.02;4.30;;;13.00;99.90;;;12.60;100.00;102598.84;4221164;28;20486;-73
2024/01/24 04:24:21;;;;;;;21.88;4.05;;;13.00;99.90;;;12.60;100.00;102598.03;4203098;28;20025;-73
2024/01/24 04:26:22;;;;;;;19.65;3.38;;;13.10;99.90;;;12.59;100.00;102597.19;4221226;28;20074;-72
2024/01/24 04:28:23;;;;;;;20.85;3.40;;;13.10;99.90;;;12.66;100.00;102608.16;4219825;28;20089;-73
2024/01/24 04:30:24;;;;;;;15.15;3.47;;;13.10;99.90;;;12.64;100.00;102602.09;4221246;28;20020;-73
2024/01/24 04:32:24;;;;;;;18.05;3.60;;;13.10;99.90;;;12.64;100.00;102605.59;4203195;28;20025;-73
2024/01/24 04:34:25;;;;;;;22.48;3.90;;;13.10;99.90;;;12.61;100.00;102597.06;4221085;28;20020;-72
2024/01/24 04:36:26;;;;;;;14.40;3.88;;;13.10;99.90;;;12.62;100.00;102607.53;4220712;28;20024;-73
2024/01/24 04:38:27;;;;;;;29.75;4.50;;;13.10;99.90;;;12.57;100.00;102600.94;4221083;28;20502;-73
2024/01/24 04:40:28;;;;;;;18.70;4.50;;;13.10;99.90;;;12.60;100.00;102598.03;4227694;28;20398;-73
2024/01/24 04:42:29;;;;;;;12.27;3.53;;;13.10;99.90;;;12.64;100.00;102599.47;4216637;28;20081;-73
2024/01/24 04:44:30;;;;;;;24.83;4.93;;;13.10;99.90;;;12.61;100.00;102610.28;4202863;28;20499;-73
2024/01/24 04:46:31;;;;;;;15.10;2.80;;;13.10;99.90;;;12.66;100.00;102606.31;4197195;28;20052;-73
2024/01/24 04:48:32;;;;;;;23.27;3.20;;;13.10;99.90;;;12.63;100.00;102597.81;4202992;28;20036;-73
2024/01/24 04:50:33;;;;;;;21.95;3.47;;;13.10;99.90;;;12.61;100.00;102615.59;4197989;28;20025;-72
2024/01/24 04:52:33;;;;;;;14.82;2.70;;;13.10;99.90;;;12.62;100.00;102606.69;4220452;28;20039;-73
2024/01/24 04:54:35;;;;;;;18.80;3.65;;;13.10;99.90;;;12.65;100.00;102617.03;4220852;28;20399;-73
2024/01/24 04:56:38;;;;;;;20.58;3.72;;;13.10;99.90;;;12.56;100.00;102607.19;4202800;28;20016;-73
2024/01/24 04:58:42;;;;;;;21.52;3.92;;;13.10;99.90;;;12.57;100.00;102608.88;4202961;28;20058;-73
2024/01/24 05:00:43;;;;;;;25.25;4.18;;;13.00;99.90;;;12.63;100.00;102618.97;4220406;28;20119;-73
2024/01/24 05:02:44;;;;;;;22.02;4.28;;;13.00;99.90;;;12.59;100.00;102607.78;4220704;28;20026;-73
2024/01/24 05:04:45;;;;;;;21.23;3.80;;;13.10;99.90;;;12.63;100.00;102614.50;4202794;28;20017;-73
2024/01/24 05:06:46;;;;;;;22.60;4.15;;;13.10;99.90;;;12.61;100.00;102608.50;4220401;28;20024;-73
2024/01/24 05:08:47;;;;;;;25.95;5.97;;;13.10;99.90;;;12.62;100.00;102617.28;4219992;28;20054;-72
2024/01/24 05:10:48;;;;;;;24.90;4.60;;;13.00;99.90;;;12.63;100.00;102613.69;4220648;28;20031;-72
2024/01/24 05:12:48;;;;;;;23.10;4.50;;;13.10;99.90;;;12.60;100.00;102629.81;4220520;28;20032;-72
2024/01/24 05:14:49;;;;;;;20.48;4.60;;;13.00;99.90;;;12.59;100.00;102628.13;4220514;28;20394;-73
2024/01/24 05:16:50;;;;;;;20.48;4.45;;;13.00;99.90;;;12.60;100.00;102625.34;4220283;28;20402;-72
2024/01/24 05:18:51;;;;;;;20.55;4.15;;;13.10;99.90;;;12.60;100.00;102624.53;4202304;28;20026;-72
2024/01/24 05:20:52;;;;;;;32.72;4.47;;;13.00;99.90;;;12.61;100.00;102626.19;4220379;28;20032;-72
2024/01/24 05:22:53;;;;;;;26.40;4.40;;;13.10;99.90;;;12.57;100.00;102625.59;4220087;28;20032;-72
2024/01/24 05:24:54;;;;;;;32.63;4.93;;;13.00;99.90;;;12.56;100.00;102631.88;4220272;28;20024;-72
2024/01/24 05:26:55;;;;;;;32.25;5.90;;;13.00;99.90;;;12.59;100.00;102638.72;4220359;28;20519;-72
2024/01/24 05:28:55;;;;;;;24.10;5.43;;;13.00;99.90;;;12.61;100.00;102636.78;4219256;28;20407;-72
2024/01/24 05:30:56;;;;;;;34.60;4.80;;;13.00;99.90;;;12.58;100.00;102642.31;4225519;28;20032;-72
2024/01/24 05:32:59;;;;;;;26.48;5.90;;;13.00;99.90;;;12.59;100.00;102641.34;4220113;28;20024;-73
2024/01/24 05:35:00;;;;;;;23.65;4.47;;;13.00;99.90;;;12.55;100.00;102643.41;4223199;28;20443;-72
2024/01/24 05:37:01;;;;;;;27.65;4.78;;;13.00;99.90;;;12.53;100.00;102637.41;4229852;28;20028;-72
2024/01/24 05:39:06;;;;;;;27.60;4.50;;;13.00;99.90;;;12.55;100.00;102639.91;4202194;28;20028;-73
2024/01/24 05:41:08;;;;;;;20.88;4.20;;;13.00;99.90;;;12.53;100.00;102644.50;4220007;28;20025;-73
2024/01/24 05:43:09;;;;;;;14.40;3.45;;;13.00;99.90;;;12.52;100.00;102642.81;4202181;28;20028;-73
2024/01/24 05:45:11;;;;;;;25.17;4.43;;;13.00;99.90;;;12.54;100.00;102647.03;4222703;28;20114;-73
2024/01/24 05:47:12;;;;;;;21.83;4.43;;;13.00;99.90;;;12.55;100.00;102650.50;4225462;28;20070;-73
2024/01/24 05:49:13;;;;;;;22.90;4.47;;;13.00;99.90;;;12.55;100.00;102646.06;4210628;28;20032;-73
2024/01/24 05:51:13;;;;;;;22.17;3.47;;;13.00;99.90;;;12.54;100.00;102640.91;4219779;28;20036;-73
2024/01/24 05:53:14;;;;;;;18.17;3.65;;;13.00;99.90;;;12.52;100.00;102648.94;4219860;28;20086;-72
2024/01/24 05:55:15;;;;;;;18.80;3.70;;;13.00;99.90;;;12.52;100.00;102638.34;4219782;28;20032;-73
2024/01/24 05:57:16;;;;;;;11.73;2.33;;;13.00;99.90;;;12.53;100.00;102633.91;4202018;28;20131;-73
2024/01/24 05:59:18;;;;;;;15.43;2.65;;;13.00;99.90;;;12.52;100.00;102637.50;4219900;28;20027;-73
2024/01/24 06:01:18;;;;;;;22.90;3.85;;;13.00;99.90;;;12.50;100.00;102642.09;4219791;28;20387;-73
2024/01/24 06:03:19;;;;;;;14.55;2.63;;;12.90;99.90;;;12.51;100.00;102641.13;4184997;28;20033;-73
2024/01/24 06:05:21;;;;;;;11.85;3.40;;;13.00;99.90;;;12.51;100.00;102641.13;4219556;28;20068;-73
2024/01/24 06:07:21;;;;;;;18.05;3.10;;;12.90;99.90;;;12.45;100.00;102636.34;4201281;28;20027;-73
2024/01/24 06:09:22;;;;;;;13.57;2.83;;;13.00;99.90;;;12.51;100.00;102641.13;4201750;28;20031;-73
2024/01/24 06:11:23;;;;;;;16.25;4.05;;;13.00;99.90;;;12.53;100.00;102652.44;4201862;28;20028;-73
2024/01/24 06:13:24;;;;;;;14.40;2.38;;;12.90;99.90;;;12.51;100.00;102654.38;4219558;28;20024;-73
2024/01/24 06:15:25;;;;;;;12.68;3.33;;;12.90;99.90;;;12.55;100.00;102655.78;4219283;28;20035;-73
2024/01/24 06:17:26;;;;;;;20.80;3.05;;;12.90;99.90;;;12.50;100.00;102653.53;4219565;28;20487;-73
2024/01/24 06:19:27;;;;;;;14.60;2.67;;;12.90;99.90;;;12.49;100.00;102648.34;4201086;28;20028;-73
2024/01/24 06:21:28;;;;;;;12.02;2.83;;;12.90;99.90;;;12.50;100.00;102652.69;4218948;28;20024;-73
2024/01/24 06:23:28;;;;;;;10.63;3.03;;;13.00;99.90;;;12.49;100.00;102656.28;4219262;28;20399;-73
2024/01/24 06:25:29;;;;;;;20.42;4.05;;;12.90;99.90;;;12.50;100.00;102671.22;4219773;28;20020;-73
2024/01/24 06:27:30;;;;;;;17.20;2.97;;;12.90;99.90;;;12.47;100.00;102667.00;4219160;28;20020;-73
2024/01/24 06:29:31;;;;;;;13.07;2.55;;;12.90;99.90;;;12.49;100.00;102680.09;4219552;28;20031;-73
2024/01/24 06:31:32;;;;;;;21.23;3.25;;;12.90;99.90;;;12.48;100.00;102678.44;4219479;28;20024;-73
2024/01/24 06:33:33;;;;;;;20.38;3.50;;;12.90;99.90;;;12.52;100.00;102677.22;4219245;28;20114;-73
2024/01/24 06:35:34;;;;;;;21.30;3.40;;;13.00;99.90;;;12.49;100.00;102682.75;4201336;28;20029;-73
2024/01/24 06:37:36;;;;;;;14.98;3.45;;;12.90;99.90;;;12.49;100.00;102685.41;4201070;28;20074;-73
2024/01/24 06:39:37;;;;;;;15.60;3.40;;;12.90;99.90;;;12.48;100.00;102689.88;4201231;28;20020;-73
2024/01/24 06:41:38;;;;;;;15.38;3.55;;;12.90;99.90;;;12.50;100.00;102692.38;4219217;28;20032;-73
2024/01/24 06:43:42;;;;;;;12.63;2.47;;;12.90;99.90;;;12.50;100.00;102687.09;4201195;28;20483;-73
2024/01/24 06:45:43;;;;;;;22.13;2.88;;;13.00;99.90;;;12.46;100.00;102690.94;4200881;28;20025;-73
2024/01/24 06:47:44;;;;;;;16.63;3.53;;;13.00;99.90;;;12.47;100.00;102697.91;4218892;28;20517;-73
2024/01/24 06:49:44;;;;;;;15.70;2.70;;;12.90;99.90;;;12.47;100.00;102704.06;4219229;28;20402;-73
2024/01/24 06:51:45;;;;;;;16.38;3.00;;;12.90;99.90;;;12.48;100.00;102711.06;4200972;28;20024;-73
2024/01/24 06:53:47;;;;;;;20.02;4.15;;;12.90;99.90;;;12.49;100.00;102709.22;4218779;28;20042;-73
2024/01/24 06:55:48;;;;;;;17.42;2.60;;;12.90;99.90;;;12.50;100.00;102710.91;4218723;28;20028;-73
2024/01/24 06:57:49;;;;;;;17.58;4.55;;;13.00;99.90;;;12.50;100.00;102703.81;4219002;28;20127;-72
2024/01/24 06:59:50;;;;;;;20.25;2.80;;;12.90;99.90;;;12.47;100.00;102704.06;4200795;28;20472;-73
2024/01/24 07:01:51;;;;;;;10.80;2.47;;;12.90;99.90;;;12.48;100.00;102705.75;4218855;28;20463;-73
2024/01/24 07:03:52;;;;;;;20.00;3.72;;;12.90;99.90;;;12.46;100.00;102707.66;4200751;28;20140;-73
2024/01/24 07:05:53;;;;;;;11.80;2.70;;;12.90;99.90;;;12.48;100.00;102708.41;4200691;28;20106;-73
2024/01/24 07:07:53;;;;;;;16.58;2.78;;;12.90;99.90;;;12.45;100.00;102713.09;4218733;28;20045;-73
2024/01/24 07:09:54;;;;;;;12.32;2.20;;;12.90;99.90;;;12.44;100.00;102719.34;4218845;28;20433;-73
2024/01/24 07:11:55;;;;;;;17.15;4.32;;;12.90;99.90;;;12.48;100.00;102723.44;4218667;28;20429;-73
2024/01/24 07:13:56;;;;;;;12.98;3.10;;;12.90;99.90;;;12.47;100.00;102721.75;4218463;28;20467;-73
2024/01/24 07:15:57;;;;;;;14.52;4.72;;;12.90;99.90;;;12.47;100.00;102729.69;4218675;28;20020;-73
2024/01/24 07:17:57;;;;;;;14.50;2.22;;;12.90;99.90;;;12.46;100.00;102728.00;4218640;28;20028;-73
2024/01/24 07:19:58;;;;;;;14.50;3.08;;;12.90;99.90;;;12.45;100.00;102726.31;4218549;28;20016;-73
2024/01/24 07:21:59;;;;;;;11.20;2.55;;;12.90;99.90;;;12.43;100.00;102734.38;4218562;28;20028;-73
2024/01/24 07:24:00;;;;;;;12.73;3.33;;;12.90;99.90;;;12.44;100.00;102740.50;4200688;28;20017;-73
2024/01/24 07:26:02;;;;;;;8.63;2.35;;;12.90;99.90;;;12.45;100.00;102743.06;4218705;28;20115;-73
2024/01/24 07:28:04;;;;;;;11.00;3.40;;;12.90;99.90;;;12.46;100.00;102741.22;4218451;28;20489;-73
2024/01/24 07:30:05;;;;;;;11.23;3.40;;;12.90;99.90;;;12.47;100.00;102745.56;4218585;28;20107;-73
2024/01/24 07:32:06;;;;;;;8.80;1.92;;;12.90;99.90;;;12.45;100.00;102752.78;4218344;28;20081;-73
2024/01/24 07:34:07;;;;;;;10.57;2.42;;;12.90;99.90;;;12.43;100.00;102757.34;4218433;28;20028;-73
2024/01/24 07:36:08;;;;;;;9.32;1.98;;;12.90;99.90;;;12.45;100.00;102755.44;4216967;28;20024;-73
2024/01/24 07:38:09;;;;;;;11.73;3.80;;;12.90;99.90;;;12.44;100.00;102761.69;4219891;28;20028;-73
2024/01/24 07:40:11;;;;;;;15.75;3.38;;;12.90;99.90;;;12.44;100.00;102767.84;4218096;28;20514;-73
2024/01/24 07:42:11;;;;;;;12.13;2.60;;;12.90;99.90;;;12.43;100.00;102757.34;4200463;28;20059;-73
2024/01/24 07:44:12;;;;;;;8.80;2.47;;;12.90;99.90;;;12.45;100.00;102758.09;4200401;28;20025;-73
2024/01/24 07:46:13;;;;;;;16.63;4.45;;;12.90;99.90;;;12.46;100.00;102765.06;4227017;28;20127;-73
2024/01/24 07:48:15;;;;;;;10.55;3.05;;;12.90;99.90;;;12.44;100.00;102761.69;4218392;28;20123;-73
2024/01/24 07:50:16;;;;;;;4.93;1.77;;;12.90;99.90;;;12.47;100.00;102774.69;4211662;28;20372;-74
2024/01/24 07:52:17;;;;;;;10.63;3.25;;;12.90;99.90;;;12.46;100.00;102773.84;4214281;28;20397;-73
2024/01/24 07:54:18;;;;;;;8.75;2.22;;;12.90;99.90;;;12.46;100.00;102773.84;4218180;28;20032;-73
2024/01/24 07:56:19;;;;;;;7.30;2.50;;;12.90;99.90;;;12.46;100.00;102771.19;4218259;28;20031;-73
2024/01/24 07:58:19;;;;;;;7.13;1.42;;;12.90;99.90;;;12.46;100.00;102765.06;4218299;28;20040;-73
2024/01/24 08:00:20;;;;;;;12.40;2.25;;;12.90;99.90;;;12.47;100.00;102772.03;4200326;28;20025;-73
2024/01/24 08:02:21;;;;;;;9.10;1.50;;;12.90;99.90;;;12.47;100.00;102772.03;4200218;28;20054;-73
2024/01/24 08:04:22;;;;;;;9.40;1.95;;;12.90;99.90;;;12.46;100.00;102771.19;4200211;28;20021;-73
2024/01/24 08:06:23;;;;;;;4.05;1.50;;;12.90;99.90;;;12.48;100.00;102782.53;4218034;28;20036;-73
2024/01/24 08:08:24;;;;;;;8.55;2.22;;;12.90;99.90;;;12.48;100.00;102779.03;4218236;28;20028;-73
2024/01/24 08:10:25;;;;;;;9.82;1.73;;;12.90;99.90;;;12.48;100.00;102779.88;4218200;28;20077;-73
2024/01/24 08:12:25;;;;;;;7.50;2.22;;;12.90;99.90;;;12.48;100.00;102789.63;4200352;28;20021;-73
2024/01/24 08:14:27;;;;;;;8.30;1.95;;;12.90;99.90;;;12.48;100.00;102779.88;4218089;28;20043;-73